ADDS METAR Data

Data at: 0744 UTC 24 Oct 2017

METAR for:KACK (Nantucket Mem Arpt, MA, US)
Text:KACK 240653Z AUTO 14012KT 10SM CLR 17/17 A3012 RMK AO2 SLP200 T01670167 TSNO
Temperature: 16.7°C ( 62°F)
Dewpoint: 16.7°C ( 62°F) [RH = 100%]
Pressure (altimeter):30.12 inches Hg (1020.1 mb) [Sea level pressure: 1020.0 mb]
Winds:from the SE (140 degrees) at 14 MPH (12 knots; 6.2 m/s)
Visibility:10 or more sm (16+ km)
Ceiling:at least 12,000 feet AGL
Clouds:sky clear below 12,000 feet AGL
QC Flag:automated observation with no human augmentation